Time;durP1;ratioP1;P1;durP2;ratioP2;P2;SDS_P1;SDS_P2;PMS_P1;PMS_P2;Temp;Humidity;BMP_temperature;BMP_pressure;BME280_temperature;BME280_humidity;BME280_pressure;Samples;Min_cycle;Max_cycle;Signal;HPM_P1;HPM_P2
2023/12/18 00:00:15;;;;;;;59.20;27.70;;;;;;;-3.12;85.64;97408.86;110299;1277;22852;-83
2023/12/18 00:03:03;;;;;;;21.80;10.60;;;;;;;-3.14;85.76;97408.85;110288;1277;22148;-83
2023/12/18 00:05:31;;;;;;;18.90;8.70;;;;;;;-3.15;85.84;97408.13;110304;1277;22387;-83
2023/12/18 00:08:00;;;;;;;6.50;4.00;;;;;;;-3.14;85.94;97409.23;110318;1277;22795;-83
2023/12/18 00:10:28;;;;;;;7.80;3.60;;;;;;;-3.09;86.39;97413.02;110249;1277;22345;-83
2023/12/18 00:12:56;;;;;;;9.80;5.30;;;;;;;-3.08;86.34;97420.61;110302;1277;22152;-82
2023/12/18 00:15:26;;;;;;;13.60;5.50;;;;;;;-3.06;86.53;97422.10;110240;1277;22170;-83
2023/12/18 00:17:54;;;;;;;10.70;5.40;;;;;;;-3.05;86.63;97420.30;110566;1268;22238;-83
2023/12/18 00:20:23;;;;;;;21.40;9.80;;;;;;;-3.05;86.76;97421.31;110271;1277;22297;-83
2023/12/18 00:22:51;;;;;;;28.90;14.80;;;;;;;-3.16;86.28;97415.28;110287;1277;22790;-83
2023/12/18 00:25:19;;;;;;;36.30;16.00;;;;;;;-3.26;86.37;97410.52;110292;1277;22361;-83
2023/12/18 00:27:47;;;;;;;29.00;13.80;;;;;;;-3.33;86.50;97405.95;110297;1277;22146;-83
2023/12/18 00:30:16;;;;;;;25.00;12.90;;;;;;;-3.35;86.72;97404.25;110304;1277;22298;-83
2023/12/18 00:32:44;;;;;;;33.90;16.30;;;;;;;-3.40;86.95;97404.46;110285;1277;22205;-82
2023/12/18 00:35:13;;;;;;;35.10;15.80;;;;;;;-3.47;86.77;97412.45;110317;1277;22379;-83
2023/12/18 00:37:41;;;;;;;21.50;10.60;;;;;;;-3.53;86.76;97416.40;110293;1277;22216;-83
2023/12/18 00:40:10;;;;;;;11.70;7.00;;;;;;;-3.51;87.20;97421.52;110312;1277;22131;-83
2023/12/18 00:42:38;;;;;;;13.80;7.50;;;;;;;-3.52;87.19;97421.08;110294;1277;22214;-83
2023/12/18 00:45:07;;;;;;;8.20;3.80;;;;;;;-3.52;87.05;97417.43;110306;1277;22255;-83
2023/12/18 00:47:35;;;;;;;8.70;4.40;;;;;;;-3.51;87.04;97409.11;110306;1277;22200;-83
2023/12/18 00:50:07;;;;;;;8.10;3.90;;;;;;;-3.48;87.31;97403.46;110253;1277;22124;-83
2023/12/18 00:52:36;;;;;;;12.10;6.40;;;;;;;-3.49;87.15;97397.71;110308;1277;22129;-83
2023/12/18 00:55:06;;;;;;;26.20;12.60;;;;;;;-3.60;87.65;97396.30;110232;1277;22377;-83
2023/12/18 00:57:34;;;;;;;27.70;13.50;;;;;;;-3.64;87.36;97393.84;110247;1277;22186;-83
2023/12/18 01:00:04;;;;;;;19.30;10.70;;;;;;;-3.68;87.39;97398.20;110283;1277;22148;-83
2023/12/18 01:02:32;;;;;;;18.70;9.80;;;;;;;-3.66;87.51;97408.61;110313;1277;22130;-83
2023/12/18 01:05:01;;;;;;;20.10;9.60;;;;;;;-3.62;87.65;97411.80;110307;1277;22155;-83
2023/12/18 01:07:32;;;;;;;14.40;7.00;;;;;;;-3.59;87.61;97406.66;110313;1277;22325;-83
2023/12/18 01:10:00;;;;;;;15.80;8.10;;;;;;;-3.61;87.20;97407.74;110241;1277;22133;-83
2023/12/18 01:12:28;;;;;;;16.80;9.70;;;;;;;-3.62;87.42;97406.86;110291;1277;22798;-83
2023/12/18 01:14:56;;;;;;;17.90;9.50;;;;;;;-3.52;87.81;97408.36;110316;1277;22289;-83
2023/12/18 01:17:24;;;;;;;17.30;8.50;;;;;;;-3.51;87.30;97411.55;110247;1277;22175;-83
2023/12/18 01:20:05;;;;;;;15.60;8.10;;;;;;;-3.50;87.02;97414.48;110304;1277;22216;-83
2023/12/18 01:22:34;;;;;;;13.30;6.50;;;;;;;-3.52;86.95;97413.53;110300;1277;22105;-84
2023/12/18 01:25:02;;;;;;;11.50;7.20;;;;;;;-3.44;87.64;97405.91;110250;1262;22146;-83
2023/12/18 01:27:30;;;;;;;13.80;7.80;;;;;;;-3.37;87.83;97406.23;110273;1277;22158;-84
2023/12/18 01:29:59;;;;;;;16.10;8.50;;;;;;;-3.37;87.44;97412.41;110279;1277;23205;-83
2023/12/18 01:32:27;;;;;;;20.40;11.70;;;;;;;-3.51;87.24;97401.54;110330;1277;22801;-83
2023/12/18 01:34:55;;;;;;;22.70;11.90;;;;;;;-3.56;87.16;97387.97;110253;1277;22142;-83
2023/12/18 01:37:24;;;;;;;15.90;7.30;;;;;;;-3.56;87.43;97384.17;110284;1277;22125;-83
2023/12/18 01:39:52;;;;;;;12.40;6.20;;;;;;;-3.51;87.82;97381.39;110312;1274;22218;-83
2023/12/18 01:42:20;;;;;;;27.50;14.40;;;;;;;-3.45;88.05;97387.59;110274;1277;22119;-83
2023/12/18 01:44:48;;;;;;;25.50;14.00;;;;;;;-3.38;88.17;97394.58;110283;1277;22195;-84
2023/12/18 01:47:17;;;;;;;33.00;16.10;;;;;;;-3.33;88.03;97386.83;110264;1277;22334;-83
2023/12/18 01:49:45;;;;;;;31.10;16.10;;;;;;;-3.28;88.02;97382.55;110311;1277;22138;-83
2023/12/18 01:52:14;;;;;;;26.20;15.10;;;;;;;-3.25;87.43;97387.02;110287;1277;22123;-83
2023/12/18 01:54:43;;;;;;;14.50;7.10;;;;;;;-3.35;86.36;97384.70;110327;1274;22198;-83
2023/12/18 01:57:15;;;;;;;11.40;5.30;;;;;;;-3.44;86.33;97384.80;110319;1277;22317;-83
2023/12/18 01:59:43;;;;;;;8.40;5.10;;;;;;;-3.43;87.07;97383.48;110305;1277;22135;-83
2023/12/18 02:02:11;;;;;;;10.60;5.10;;;;;;;-3.43;86.87;97380.73;110292;1274;22177;-83
2023/12/18 02:04:40;;;;;;;8.40;5.00;;;;;;;-3.48;86.70;97382.45;110291;1277;22108;-83
2023/12/18 02:07:10;;;;;;;17.90;9.30;;;;;;;-3.54;86.54;97376.40;110307;1277;22976;-83
2023/12/18 02:09:40;;;;;;;29.10;13.70;;;;;;;-3.64;86.37;97375.38;110265;1277;22303;-83
2023/12/18 02:12:08;;;;;;;25.00;13.50;;;;;;;-3.76;86.04;97374.45;110306;1277;22203;-83
2023/12/18 02:14:37;;;;;;;28.50;14.50;;;;;;;-3.86;86.06;97371.19;110306;1277;22147;-84
2023/12/18 02:17:05;;;;;;;17.90;9.30;;;;;;;-3.94;86.24;97365.71;110234;1277;22088;-83
2023/12/18 02:19:33;;;;;;;11.20;5.90;;;;;;;-3.95;86.52;97357.59;110282;1277;22953;-83
2023/12/18 02:22:02;;;;;;;7.80;4.30;;;;;;;-3.95;86.66;97354.85;110311;1277;22255;-84
2023/12/18 02:24:30;;;;;;;7.40;4.60;;;;;;;-3.96;86.86;97353.23;110106;1277;22137;-83
2023/12/18 02:26:59;;;;;;;8.50;4.90;;;;;;;-4.01;87.06;97347.60;110288;1277;22146;-83
2023/12/18 02:29:27;;;;;;;8.90;5.30;;;;;;;-4.06;87.09;97335.71;110283;1277;22272;-84
2023/12/18 02:31:55;;;;;;;7.80;4.30;;;;;;;-4.10;87.08;97324.77;110213;1277;22120;-84
2023/12/18 02:34:23;;;;;;;5.40;3.60;;;;;;;-4.13;87.18;97324.23;110273;1277;22357;-83
2023/12/18 02:36:51;;;;;;;12.90;7.30;;;;;;;-4.15;87.41;97331.00;110299;1277;22179;-84
2023/12/18 02:39:20;;;;;;;22.30;12.90;;;;;;;-4.17;87.47;97327.79;110288;1277;22159;-83
2023/12/18 02:41:48;;;;;;;15.90;8.90;;;;;;;-4.19;87.49;97327.99;110296;1277;22175;-83
2023/12/18 02:44:16;;;;;;;9.70;4.70;;;;;;;-4.21;87.42;97324.23;110293;1277;22332;-84
2023/12/18 02:46:44;;;;;;;12.20;7.60;;;;;;;-4.23;87.31;97322.79;110300;1277;22130;-83
2023/12/18 02:49:12;;;;;;;11.50;6.30;;;;;;;-4.22;87.40;97320.27;110275;1277;22144;-83
2023/12/18 02:51:41;;;;;;;8.80;4.90;;;;;;;-4.21;87.62;97324.79;110309;1277;22255;-83
2023/12/18 02:54:09;;;;;;;11.90;6.80;;;;;;;-4.23;87.77;97335.33;110282;1277;22132;-83
2023/12/18 02:56:37;;;;;;;25.70;13.10;;;;;;;-4.26;87.87;97336.98;110306;1277;22156;-84
2023/12/18 02:59:05;;;;;;;18.00;9.40;;;;;;;-4.29;87.75;97329.20;110314;1277;22133;-83
2023/12/18 03:01:35;;;;;;;11.00;6.00;;;;;;;-4.28;87.74;97327.55;110270;1277;22104;-83
2023/12/18 03:04:03;;;;;;;8.00;4.80;;;;;;;-4.26;87.79;97320.33;110294;1277;22137;-83
2023/12/18 03:06:32;;;;;;;7.50;4.10;;;;;;;-4.26;87.86;97322.77;110296;1277;22921;-83
2023/12/18 03:09:00;;;;;;;8.00;3.90;;;;;;;-4.24;87.84;97325.45;110280;1277;22142;-83
2023/12/18 03:11:28;;;;;;;5.70;3.80;;;;;;;-4.22;87.86;97329.31;110267;1277;22339;-83
2023/12/18 03:13:56;;;;;;;10.00;5.40;;;;;;;-4.24;87.66;97333.00;110325;1277;22131;-84
2023/12/18 03:16:24;;;;;;;18.20;8.30;;;;;;;-4.35;87.72;97342.09;110310;1277;22379;-84
2023/12/18 03:18:53;;;;;;;21.80;11.90;;;;;;;-4.39;87.49;97347.64;110275;1277;22789;-84
2023/12/18 03:21:21;;;;;;;12.60;7.40;;;;;;;-4.41;88.04;97337.55;110298;1277;22117;-83
2023/12/18 03:23:49;;;;;;;8.40;5.00;;;;;;;-4.37;88.33;97338.48;110306;1277;22309;-84
2023/12/18 03:26:18;;;;;;;12.50;6.10;;;;;;;-4.31;88.62;97350.02;110266;1277;22149;-84
2023/12/18 03:28:46;;;;;;;13.40;7.10;;;;;;;-4.27;88.62;97359.59;110274;1277;22125;-83
2023/12/18 03:31:14;;;;;;;12.70;6.40;;;;;;;-4.24;88.26;97360.35;110270;1277;22135;-84
2023/12/18 03:33:43;;;;;;;9.40;4.70;;;;;;;-4.22;88.19;97357.15;110299;1274;22195;-84
2023/12/18 03:36:11;;;;;;;8.30;4.20;;;;;;;-4.14;88.39;97348.13;110293;1277;22791;-84
2023/12/18 03:38:39;;;;;;;9.00;4.40;;;;;;;-4.01;88.75;97338.08;110340;1277;22122;-84
2023/12/18 03:41:07;;;;;;;6.60;3.60;;;;;;;-3.92;88.82;97335.77;110278;1277;22104;-83
2023/12/18 03:43:35;;;;;;;6.10;4.10;;;;;;;-3.84;88.43;97333.84;110277;1277;22133;-84
2023/12/18 03:46:05;;;;;;;8.30;4.50;;;;;;;-3.83;88.14;97332.41;110295;1277;22115;-84
2023/12/18 03:48:33;;;;;;;11.10;5.80;;;;;;;-3.69;88.69;97329.15;110079;1277;22129;-83
2023/12/18 03:51:02;;;;;;;16.30;7.30;;;;;;;-3.60;88.40;97323.23;110252;1277;22173;-84
2023/12/18 03:53:30;;;;;;;19.40;8.50;;;;;;;-3.60;87.30;97321.13;110287;1277;22844;-83
2023/12/18 03:55:58;;;;;;;18.30;8.60;;;;;;;-3.62;87.17;97318.25;110283;1277;22157;-83
2023/12/18 03:58:26;;;;;;;14.30;7.70;;;;;;;-3.59;87.04;97312.46;110189;1277;23142;-83
2023/12/18 04:00:54;;;;;;;12.50;5.80;;;;;;;-3.57;86.98;97307.39;110265;1277;22220;-84
2023/12/18 04:03:22;;;;;;;14.30;6.90;;;;;;;-3.49;87.24;97310.30;110291;1277;22182;-84
2023/12/18 04:05:51;;;;;;;15.00;7.20;;;;;;;-3.56;86.28;97306.26;110281;1277;22138;-83
2023/12/18 04:08:19;;;;;;;13.60;7.80;;;;;;;-3.65;86.15;97303.30;110294;1277;22164;-83
2023/12/18 04:10:47;;;;;;;8.00;4.40;;;;;;;-3.61;87.01;97293.17;110314;1277;22119;-84
2023/12/18 04:13:15;;;;;;;9.60;5.30;;;;;;;-3.63;86.65;97281.39;110305;1277;22165;-83
2023/12/18 04:15:43;;;;;;;10.90;4.80;;;;;;;-3.61;87.13;97281.00;110311;1277;22188;-83
2023/12/18 04:18:12;;;;;;;10.50;6.40;;;;;;;-3.59;87.14;97288.67;110326;1277;22999;-83
2023/12/18 04:20:40;;;;;;;10.20;5.90;;;;;;;-3.59;86.95;97291.08;110292;1277;22540;-83
2023/12/18 04:23:08;;;;;;;17.60;10.30;;;;;;;-3.68;86.49;97292.45;110304;1277;22848;-83
2023/12/18 04:25:36;;;;;;;18.60;8.90;;;;;;;-3.74;86.65;97299.77;110321;1277;22147;-83
2023/12/18 04:28:05;;;;;;;17.50;8.90;;;;;;;-3.85;86.14;97296.82;110299;1277;22120;-83
2023/12/18 04:30:33;;;;;;;15.00;7.20;;;;;;;-3.95;86.20;97292.79;110292;1277;22130;-83
2023/12/18 04:33:01;;;;;;;12.40;5.50;;;;;;;-3.95;86.66;97294.48;110310;1277;22137;-83
2023/12/18 04:35:29;;;;;;;7.60;4.50;;;;;;;-3.93;87.02;97286.38;110314;1277;22124;-84
2023/12/18 04:37:58;;;;;;;10.40;7.70;;;;;;;-3.92;86.73;97281.97;110332;1277;22971;-83
2023/12/18 04:40:26;;;;;;;20.90;14.50;;;;;;;-3.94;86.75;97282.90;110304;1277;22191;-83
2023/12/18 04:42:55;;;;;;;14.20;7.30;;;;;;;-3.99;86.35;97277.08;110211;1277;23009;-83
2023/12/18 04:45:23;;;;;;;8.60;4.10;;;;;;;-4.05;86.45;97270.83;109862;1264;532844;-83
2023/12/18 04:47:52;;;;;;;7.80;5.20;;;;;;;-4.08;86.60;97264.77;110261;1277;22128;-83
2023/12/18 04:50:20;;;;;;;15.80;8.70;;;;;;;-4.15;86.89;97268.30;110308;1277;22130;-84
2023/12/18 04:52:48;;;;;;;75.90;25.70;;;;;;;-4.24;86.84;97278.16;110291;1277;22245;-83
2023/12/18 04:55:16;;;;;;;103.50;31.50;;;;;;;-4.31;86.61;97283.58;110301;1277;22255;-83
2023/12/18 04:57:45;;;;;;;20.10;9.20;;;;;;;-4.35;86.70;97289.17;110317;1277;23014;-84
2023/12/18 05:00:13;;;;;;;14.50;6.80;;;;;;;-4.36;86.83;97288.56;110328;1277;22166;-84
2023/12/18 05:02:41;;;;;;;13.00;6.90;;;;;;;-4.36;86.92;97291.33;110303;1277;22127;-83
2023/12/18 05:05:10;;;;;;;13.70;5.60;;;;;;;-4.35;86.92;97289.36;110289;1277;22147;-83
2023/12/18 05:07:39;;;;;;;16.70;7.90;;;;;;;-4.34;86.93;97300.56;110274;1267;23181;-83
2023/12/18 05:10:07;;;;;;;25.20;11.30;;;;;;;-4.37;86.97;97305.70;110324;1277;22150;-82
2023/12/18 05:12:35;;;;;;;35.80;15.20;;;;;;;-4.45;87.26;97305.52;110289;1277;22307;-83
2023/12/18 05:15:05;;;;;;;27.60;13.30;;;;;;;-4.49;87.17;97300.75;110270;1277;22149;-83
2023/12/18 05:17:37;;;;;;;33.80;15.50;;;;;;;-4.49;87.15;97301.61;110311;1277;22154;-84
2023/12/18 05:20:08;;;;;;;15.10;8.10;;;;;;;-4.43;87.26;97302.51;110300;1277;22135;-83
2023/12/18 05:22:37;;;;;;;17.60;9.20;;;;;;;-4.36;87.66;97297.02;110292;1277;22267;-83
2023/12/18 05:25:08;;;;;;;24.60;12.60;;;;;;;-4.29;88.16;97307.55;110317;1277;22117;-83
2023/12/18 05:27:37;;;;;;;44.00;21.20;;;;;;;-4.25;88.11;97306.81;110201;1277;22956;-83
2023/12/18 05:30:05;;;;;;;68.60;28.30;;;;;;;-4.19;88.01;97308.75;110332;1277;22144;-82
2023/12/18 05:32:34;;;;;;;67.10;27.90;;;;;;;-4.15;87.82;97304.91;110308;1277;22994;-83
2023/12/18 05:35:02;;;;;;;63.70;25.90;;;;;;;-4.11;87.72;97309.79;110336;1277;22128;-82
2023/12/18 05:37:30;;;;;;;47.90;22.60;;;;;;;-4.08;87.63;97306.02;110315;1277;22125;-82
2023/12/18 05:39:58;;;;;;;24.10;11.60;;;;;;;-4.03;87.70;97308.95;110314;1277;22605;-83
2023/12/18 05:42:26;;;;;;;22.30;10.10;;;;;;;-3.96;87.92;97307.86;110347;1277;22132;-83
2023/12/18 05:44:54;;;;;;;15.30;8.00;;;;;;;-3.88;87.73;97307.46;110305;1277;22112;-84
2023/12/18 05:47:22;;;;;;;15.60;7.80;;;;;;;-3.78;88.20;97309.20;110316;1277;22126;-83
2023/12/18 05:49:51;;;;;;;17.40;9.50;;;;;;;-3.67;88.06;97312.61;110324;1277;22151;-82
2023/12/18 05:52:21;;;;;;;19.70;9.90;;;;;;;-3.58;88.23;97315.60;110331;1277;23008;-82
2023/12/18 05:54:49;;;;;;;22.70;10.60;;;;;;;-3.44;88.38;97314.23;110310;1277;22145;-83
2023/12/18 05:57:19;;;;;;;19.30;9.40;;;;;;;-3.36;87.81;97314.06;110343;1277;22112;-83
2023/12/18 05:59:47;;;;;;;9.10;5.00;;;;;;;-3.33;87.41;97315.77;110309;1277;22995;-83
2023/12/18 06:02:15;;;;;;;10.50;6.30;;;;;;;-3.24;87.80;97315.48;110282;1277;22220;-84
2023/12/18 06:04:43;;;;;;;24.00;13.90;;;;;;;-3.13;87.79;97314.94;110267;1277;23283;-83
2023/12/18 06:07:12;;;;;;;40.80;19.30;;;;;;;-3.05;87.69;97313.70;110233;1277;22644;-81
2023/12/18 06:09:40;;;;;;;46.20;21.40;;;;;;;-2.95;87.48;97306.59;110239;1278;23053;-80
2023/12/18 06:12:10;;;;;;;68.50;29.70;;;;;;;-2.93;86.67;97303.80;110288;1277;22810;-84
2023/12/18 06:14:38;;;;;;;42.00;20.40;;;;;;;-2.87;86.81;97306.18;110302;1277;22134;-80
2023/12/18 06:17:10;;;;;;;34.70;15.50;;;;;;;-2.92;86.33;97302.14;110331;1277;22133;-81
2023/12/18 06:19:39;;;;;;;73.60;32.50;;;;;;;-2.86;86.87;97301.96;110294;1277;22157;-82
2023/12/18 06:22:11;;;;;;;133.10;55.40;;;;;;;-2.83;86.67;97304.52;110286;1277;22110;-83
2023/12/18 06:24:39;;;;;;;137.90;59.50;;;;;;;-2.87;86.18;97306.23;110344;1277;22120;-82
2023/12/18 06:27:08;;;;;;;79.40;35.50;;;;;;;-2.90;86.16;97305.66;110329;1277;22990;-83
2023/12/18 06:29:36;;;;;;;68.30;32.30;;;;;;;-2.94;85.93;97304.23;110330;1277;22846;-85
2023/12/18 06:32:04;;;;;;;49.50;23.50;;;;;;;-2.97;86.09;97301.96;110305;1271;22241;-83
2023/12/18 06:34:32;;;;;;;50.20;22.60;;;;;;;-2.99;86.04;97300.30;110311;1277;22117;-84
2023/12/18 06:37:01;;;;;;;62.40;29.20;;;;;;;-2.99;86.31;97298.73;110299;1277;22125;-85
2023/12/18 06:39:29;;;;;;;78.30;31.80;;;;;;;-3.00;86.17;97298.18;110317;1277;22160;-86
2023/12/18 06:41:57;;;;;;;66.10;28.40;;;;;;;-3.00;86.27;97297.11;110293;1277;22196;-86
2023/12/18 06:44:25;;;;;;;44.80;21.60;;;;;;;-3.01;86.25;97290.54;110323;1277;22166;-85
2023/12/18 06:46:54;;;;;;;48.40;20.90;;;;;;;-3.01;86.23;97295.52;110302;1277;22886;-86
2023/12/18 06:49:22;;;;;;;40.00;21.10;;;;;;;-3.06;86.13;97292.64;110306;1277;22125;-86
2023/12/18 06:51:50;;;;;;;31.00;14.90;;;;;;;-3.08;86.44;97288.06;110346;1277;22150;-88
2023/12/18 06:54:18;;;;;;;34.00;17.20;;;;;;;-3.08;86.62;97291.88;110352;1277;22120;-86
2023/12/18 06:56:47;;;;;;;37.50;17.80;;;;;;;-3.06;86.79;97290.10;110351;1277;22141;-84
2023/12/18 06:59:15;;;;;;;35.50;16.70;;;;;;;-3.06;86.74;97286.33;110297;1277;23076;-85
2023/12/18 07:01:43;;;;;;;25.90;13.40;;;;;;;-3.05;86.86;97285.48;110329;1277;22184;-86
2023/12/18 07:04:11;;;;;;;41.70;19.70;;;;;;;-3.07;87.12;97284.14;110323;1277;22128;-86
2023/12/18 07:06:39;;;;;;;80.60;35.40;;;;;;;-3.10;87.07;97284.68;110315;1277;22927;-86
2023/12/18 07:09:08;;;;;;;80.10;34.70;;;;;;;-3.12;87.19;97285.27;110268;1277;22184;-88
2023/12/18 07:11:36;;;;;;;76.40;33.50;;;;;;;-3.15;87.18;97285.73;110349;1277;22290;-87
2023/12/18 07:14:04;;;;;;;95.00;38.60;;;;;;;-3.17;87.34;97282.15;110336;1277;22204;-87
2023/12/18 07:16:32;;;;;;;91.70;40.00;;;;;;;-3.19;87.58;97288.43;110350;1277;22865;-86
2023/12/18 07:19:01;;;;;;;84.70;40.30;;;;;;;-3.21;87.60;97288.80;110351;1277;22224;-86
2023/12/18 07:21:29;;;;;;;76.10;32.90;;;;;;;-3.25;87.65;97286.17;110341;1277;22191;-86
2023/12/18 07:23:57;;;;;;;51.10;24.20;;;;;;;-3.26;87.64;97287.82;110309;1277;22145;-83
2023/12/18 07:26:25;;;;;;;30.70;20.50;;;;;;;-3.23;87.72;97283.17;110297;1277;22238;-84
2023/12/18 07:28:54;;;;;;;27.40;14.90;;;;;;;-3.16;88.12;97279.09;110327;1277;22508;-85
2023/12/18 07:31:22;;;;;;;39.00;19.50;;;;;;;-3.09;88.52;97280.98;110319;1277;22105;-87
2023/12/18 07:33:50;;;;;;;31.90;17.30;;;;;;;-3.02;88.25;97276.85;110337;1277;22110;-85
2023/12/18 07:36:19;;;;;;;38.30;25.40;;;;;;;-2.95;88.21;97271.30;110287;1277;22935;-88
2023/12/18 07:38:48;;;;;;;31.60;16.80;;;;;;;-2.86;88.31;97277.67;110298;1277;22150;-86
2023/12/18 07:41:17;;;;;;;44.00;22.80;;;;;;;-2.72;88.78;97279.69;110342;1277;22115;-86
2023/12/18 07:43:45;;;;;;;93.30;42.00;;;;;;;-2.63;88.68;97283.86;110316;1270;22185;-87
2023/12/18 07:46:19;;;;;;;95.70;49.00;;;;;;;-2.53;88.54;97284.11;110342;1277;22220;-86
2023/12/18 07:48:51;;;;;;;59.10;31.40;;;;;;;-2.43;88.39;97278.48;110179;1277;22718;-82
2023/12/18 07:51:19;;;;;;;18.60;11.30;;;;;;;-2.34;88.05;97275.05;110342;1277;22140;-85
2023/12/18 07:53:47;;;;;;;26.40;15.80;;;;;;;-2.27;87.83;97273.01;110282;1277;22219;-83
2023/12/18 07:56:16;;;;;;;19.30;12.10;;;;;;;-2.18;87.91;97273.02;110332;1277;22177;-84
2023/12/18 07:58:44;;;;;;;17.60;11.00;;;;;;;-2.11;87.70;97266.21;110311;1277;22933;-83
2023/12/18 08:01:16;;;;;;;29.20;15.80;;;;;;;-2.04;87.67;97268.49;110316;1277;22208;-82
2023/12/18 08:03:48;;;;;;;37.30;20.50;;;;;;;-1.91;87.90;97263.18;110304;1277;22138;-83
2023/12/18 08:06:17;;;;;;;34.00;20.10;;;;;;;-1.79;88.02;97252.14;110340;1277;22162;-82
2023/12/18 08:08:45;;;;;;;27.80;16.80;;;;;;;-1.64;88.22;97253.81;110316;1277;22319;-82
2023/12/18 08:11:14;;;;;;;34.70;20.80;;;;;;;-1.44;88.73;97249.57;110337;1277;22142;-82
2023/12/18 08:13:42;;;;;;;35.10;21.60;;;;;;;-1.23;88.79;97244.13;110286;1277;23307;-83
2023/12/18 08:16:11;;;;;;;31.20;18.00;;;;;;;-1.08;88.21;97238.34;110311;1277;22124;-83
2023/12/18 08:18:42;;;;;;;25.70;15.00;;;;;;;-0.96;88.08;97237.59;110304;1277;22934;-81
2023/12/18 08:21:13;;;;;;;33.00;18.80;;;;;;;-0.86;87.14;97231.88;110349;1277;22212;-82
2023/12/18 08:23:41;;;;;;;36.40;18.80;;;;;;;-0.82;87.21;97233.46;110355;1277;22230;-82
2023/12/18 08:26:11;;;;;;;29.00;16.00;;;;;;;-0.76;86.81;97231.39;110313;1277;22247;-81
2023/12/18 08:28:43;;;;;;;24.40;14.60;;;;;;;-0.78;86.23;97228.67;110125;1277;22256;-84
2023/12/18 08:31:12;;;;;;;23.00;14.00;;;;;;;-0.85;85.85;97217.95;110289;1277;22918;-83
2023/12/18 08:33:40;;;;;;;25.40;13.70;;;;;;;-0.84;86.40;97215.94;110275;1277;22196;-82
2023/12/18 08:36:09;;;;;;;29.50;17.30;;;;;;;-0.73;86.83;97210.77;110130;1277;22239;-82
2023/12/18 08:38:37;;;;;;;24.80;14.30;;;;;;;-0.65;86.69;97205.50;110326;1277;22998;-83
2023/12/18 08:41:05;;;;;;;22.50;14.80;;;;;;;-0.66;85.95;97205.96;110328;1277;22158;-84
2023/12/18 08:43:34;;;;;;;23.70;14.70;;;;;;;-0.61;86.38;97201.72;110348;1277;22204;-85
2023/12/18 08:46:02;;;;;;;29.60;16.80;;;;;;;-0.50;86.72;97200.91;110346;1277;22135;-84
2023/12/18 08:48:30;;;;;;;38.20;17.90;;;;;;;-0.38;86.76;97192.14;110333;1277;22175;-85
2023/12/18 08:50:59;;;;;;;24.30;14.10;;;;;;;-0.30;86.60;97188.77;110337;1277;22273;-81
2023/12/18 08:53:27;;;;;;;27.30;16.50;;;;;;;-0.30;85.79;97188.73;110328;1277;22166;-84
2023/12/18 08:55:55;;;;;;;33.50;19.90;;;;;;;-0.23;86.16;97186.13;110352;1277;22843;-79
2023/12/18 08:58:25;;;;;;;30.50;16.60;;;;;;;-0.14;86.01;97182.75;110321;1277;22717;-77
2023/12/18 09:00:53;;;;;;;24.70;15.30;;;;;;;-0.07;85.96;97179.27;110348;1277;22171;-76
2023/12/18 09:03:21;;;;;;;25.90;14.80;;;;;;;0.00;85.57;97178.95;110299;1277;22234;-77
2023/12/18 09:05:49;;;;;;;20.30;12.00;;;;;;;0.09;85.86;97177.27;110306;1277;22163;-77
2023/12/18 09:08:18;;;;;;;130.70;51.90;;;;;;;0.22;86.27;97183.92;110325;1277;23011;-79
2023/12/18 09:10:46;;;;;;;34.20;18.70;;;;;;;0.37;86.15;97182.73;110252;1277;22292;-77
2023/12/18 09:13:14;;;;;;;33.90;21.30;;;;;;;0.48;86.05;97179.62;110325;1277;22926;-76
2023/12/18 09:15:42;;;;;;;21.60;12.70;;;;;;;0.63;85.94;97187.73;110322;1277;22179;-77
2023/12/18 09:18:10;;;;;;;16.80;8.50;;;;;;;0.70;85.18;97183.20;110304;1262;22170;-78
2023/12/18 09:20:40;;;;;;;17.90;10.60;;;;;;;0.85;85.52;97185.08;110301;1277;22199;-78
2023/12/18 09:23:08;;;;;;;14.90;9.30;;;;;;;0.95;85.49;97185.19;110334;1277;22163;-78
2023/12/18 09:25:37;;;;;;;13.40;8.00;;;;;;;1.07;85.41;97186.41;110335;1277;22201;-77
2023/12/18 09:28:05;;;;;;;17.40;8.10;;;;;;;1.12;84.77;97181.76;110358;1277;22116;-77
2023/12/18 09:30:33;;;;;;;18.90;9.00;;;;;;;1.18;84.61;97182.20;110350;1261;22201;-77
2023/12/18 09:33:01;;;;;;;16.30;7.60;;;;;;;1.27;84.97;97181.89;110347;1277;23029;-77
2023/12/18 09:35:30;;;;;;;13.60;8.20;;;;;;;1.31;83.97;97177.02;110343;1277;22186;-77
2023/12/18 09:37:58;;;;;;;18.00;10.30;;;;;;;1.34;84.56;97178.70;110295;1277;22495;-78
2023/12/18 09:40:26;;;;;;;15.90;8.60;;;;;;;1.47;85.08;97171.98;110319;1261;22207;-78
2023/12/18 09:42:55;;;;;;;11.00;7.10;;;;;;;1.76;85.62;97170.58;110251;1277;22189;-77
2023/12/18 09:45:25;;;;;;;12.00;7.40;;;;;;;2.22;85.50;97164.07;110320;1277;22192;-78
2023/12/18 09:47:54;;;;;;;14.20;7.90;;;;;;;2.76;85.48;97162.27;110313;1277;22212;-78
2023/12/18 09:50:22;;;;;;;12.00;7.20;;;;;;;3.32;83.71;97157.48;110316;1277;22187;-77
2023/12/18 09:53:10;;;;;;;13.70;6.30;;;;;;;3.78;82.49;97151.58;110321;1277;22834;-78
2023/12/18 09:55:40;;;;;;;11.70;7.60;;;;;;;4.22;79.08;97148.42;110311;1277;22189;-78
2023/12/18 09:58:13;;;;;;;12.10;8.20;;;;;;;4.61;78.51;97144.55;110268;1264;22200;-79
2023/12/18 10:00:41;;;;;;;9.50;6.80;;;;;;;5.00;77.89;97137.12;110368;1277;22158;-80
2023/12/18 10:03:13;;;;;;;9.30;6.40;;;;;;;5.40;76.83;97133.67;110302;1277;22272;-76
2023/12/18 10:05:43;;;;;;;13.30;8.20;;;;;;;5.78;74.69;97133.06;110331;1277;22199;-76
2023/12/18 10:08:11;;;;;;;13.40;10.10;;;;;;;6.18;74.02;97127.40;110317;1277;22129;-77
2023/12/18 10:10:43;;;;;;;11.60;8.10;;;;;;;6.51;71.36;97127.96;110276;1277;22838;-76
2023/12/18 10:13:12;;;;;;;15.00;9.70;;;;;;;6.64;67.21;97126.31;110270;1277;22203;-77
2023/12/18 10:15:42;;;;;;;18.30;11.00;;;;;;;6.66;65.19;97123.77;110322;1277;22379;-77
2023/12/18 10:18:11;;;;;;;11.80;8.80;;;;;;;6.94;67.40;97118.21;110199;1277;22745;-78
2023/12/18 10:20:48;;;;;;;12.20;7.70;;;;;;;7.17;64.45;97115.50;110356;1277;22124;-78
2023/12/18 10:23:17;;;;;;;11.10;8.50;;;;;;;7.24;63.45;97113.02;110358;1277;22288;-78
2023/12/18 10:25:47;;;;;;;16.40;13.20;;;;;;;7.33;62.89;97111.77;110298;1277;22138;-78
2023/12/18 10:28:16;;;;;;;12.60;8.00;;;;;;;7.54;63.13;97102.00;110365;1277;22153;-78
2023/12/18 10:30:45;;;;;;;11.30;7.70;;;;;;;7.53;60.50;97101.11;110331;1277;22609;-77
2023/12/18 10:33:14;;;;;;;12.30;9.00;;;;;;;7.56;59.80;97096.96;110362;1277;22119;-78
2023/12/18 10:35:43;;;;;;;24.10;13.80;;;;;;;7.34;59.53;97101.27;110353;1277;22609;-79
2023/12/18 10:38:19;;;;;;;24.40;13.10;;;;;;;7.30;59.87;97095.96;110345;1277;22130;-78
2023/12/18 10:40:49;;;;;;;19.60;13.60;;;;;;;7.48;59.39;97098.02;110382;1277;22160;-78
2023/12/18 10:43:23;;;;;;;23.70;14.90;;;;;;;7.68;59.42;97085.94;110385;1277;22115;-78
2023/12/18 10:45:53;;;;;;;18.40;11.50;;;;;;;7.91;58.84;97085.80;110351;1277;22171;-78
2023/12/18 10:48:22;;;;;;;16.70;10.70;;;;;;;8.14;57.27;97072.98;110358;1277;22150;-77
2023/12/18 10:50:54;;;;;;;16.90;10.90;;;;;;;8.36;57.57;97073.67;110347;1277;23011;-78
2023/12/18 10:53:24;;;;;;;24.30;20.30;;;;;;;8.63;56.73;97074.75;110359;1277;22136;-77
2023/12/18 10:55:54;;;;;;;11.70;9.00;;;;;;;8.80;55.82;97065.30;110374;1277;22291;-78
2023/12/18 10:58:22;;;;;;;22.10;16.90;;;;;;;8.83;55.09;97065.87;110344;1277;22243;-78
2023/12/18 11:00:52;;;;;;;17.10;12.30;;;;;;;9.05;54.97;97058.92;110320;1277;22145;-78
2023/12/18 11:03:26;;;;;;;14.40;8.90;;;;;;;9.28;54.37;97056.53;110345;1277;22135;-78
2023/12/18 11:05:56;;;;;;;20.80;12.00;;;;;;;9.53;53.07;97054.11;110350;1277;22139;-78
2023/12/18 11:08:24;;;;;;;13.00;8.20;;;;;;;9.85;53.48;97052.63;110324;1277;22291;-78
2023/12/18 11:10:54;;;;;;;9.60;6.30;;;;;;;10.16;53.23;97053.20;110395;1277;22795;-78
2023/12/18 11:13:26;;;;;;;7.90;6.10;;;;;;;10.49;52.20;97050.96;110354;1277;22842;-78
2023/12/18 11:16:16;;;;;;;9.70;6.60;;;;;;;10.72;50.59;97052.48;110369;1277;22799;-78
2023/12/18 11:19:09;;;;;;;7.50;6.00;;;;;;;10.98;51.01;97044.12;110370;1277;22185;-78
2023/12/18 11:21:50;;;;;;;7.80;5.60;;;;;;;11.11;49.37;97042.75;110352;1277;22156;-79
2023/12/18 11:24:18;;;;;;;6.20;5.00;;;;;;;11.37;50.11;97041.56;110345;1277;22134;-78